createdAt,value
2022-10-22T00:00:02.079Z,13.11
2022-10-22T00:02:03.781Z,13.06
2022-10-22T00:04:05.677Z,13.09
2022-10-22T00:06:09.087Z,13.13
2022-10-22T00:08:10.524Z,13.16
2022-10-22T00:10:12.272Z,13.18
2022-10-22T00:12:15.104Z,13.15
2022-10-22T00:14:16.718Z,13.14
2022-10-22T00:16:18.283Z,13.16
2022-10-22T00:18:19.814Z,13.15
2022-10-22T00:20:21.351Z,13.13
2022-10-22T00:22:24.205Z,13.11
2022-10-22T00:24:26.647Z,13.17
2022-10-22T00:26:28.164Z,13.17
2022-10-22T00:28:29.656Z,13.17
2022-10-22T00:30:31.539Z,13.18
2022-10-22T00:32:33.046Z,13.23
2022-10-22T00:34:34.645Z,13.32
2022-10-22T00:36:36.371Z,13.29
2022-10-22T00:38:39.398Z,13.27
2022-10-22T00:40:40.882Z,13.28
2022-10-22T00:42:43.063Z,13.26
2022-10-22T00:45:05.840Z,13.24
2022-10-22T00:47:07.388Z,13.25
2022-10-22T00:49:08.913Z,13.23
2022-10-22T00:51:10.567Z,13.27
2022-10-22T00:53:14.817Z,13.26
2022-10-22T00:55:19.211Z,13.17
2022-10-22T00:57:22.412Z,13.23
2022-10-22T00:59:23.924Z,13.28
2022-10-22T01:01:28.468Z,13.38
2022-10-22T01:03:29.986Z,13.25
2022-10-22T01:05:39.261Z,13.15
2022-10-22T01:07:44.781Z,13.17
2022-10-22T01:09:55.170Z,13.27
2022-10-22T01:12:03.635Z,13.19
2022-10-22T01:14:16.353Z,13.13
2022-10-22T01:16:27.222Z,13.13
2022-10-22T01:18:37.011Z,13.15
2022-10-22T01:20:53.344Z,13.11
2022-10-22T01:23:07.248Z,13.08
2022-10-22T01:25:16.985Z,13.13
2022-10-22T01:27:39.481Z,13.16
2022-10-22T01:29:48.249Z,13.07
2022-10-22T01:31:54.920Z,13.12
2022-10-22T01:33:59.539Z,13.06
2022-10-22T01:36:02.822Z,13.04
2022-10-22T01:38:07.608Z,13.00
2022-10-22T01:40:12.023Z,13.03
2022-10-22T01:42:14.050Z,13.03
2022-10-22T01:44:27.932Z,13.04
2022-10-22T01:46:31.068Z,13.02
2022-10-22T01:48:40.804Z,12.95
2022-10-22T01:51:13.445Z,13.03
2022-10-22T01:53:24.240Z,13.02
2022-10-22T01:55:30.915Z,12.99
2022-10-22T01:57:42.492Z,13.00
2022-10-22T01:59:53.199Z,12.99
2022-10-22T02:02:03.871Z,12.95
2022-10-22T02:04:13.623Z,12.91
2022-10-22T02:06:21.037Z,12.90
2022-10-22T02:08:25.724Z,12.87
2022-10-22T02:10:29.493Z,12.91
2022-10-22T02:12:32.342Z,12.91
2022-10-22T02:14:37.905Z,12.86
2022-10-22T02:16:42.748Z,12.83
2022-10-22T02:18:49.269Z,12.78
2022-10-22T02:20:52.333Z,12.77
2022-10-22T02:22:54.291Z,12.81
2022-10-22T02:24:56.666Z,12.82
2022-10-22T02:27:06.230Z,12.81
2022-10-22T02:29:12.113Z,12.76
2022-10-22T02:31:18.514Z,12.73
2022-10-22T02:33:24.421Z,12.75
2022-10-22T02:35:29.149Z,12.72
2022-10-22T02:37:31.411Z,12.72
2022-10-22T02:39:35.455Z,12.71
2022-10-22T02:41:37.624Z,12.72
2022-10-22T02:43:41.711Z,12.69
2022-10-22T02:45:43.389Z,12.60
2022-10-22T02:47:45.050Z,12.57
2022-10-22T02:49:46.628Z,12.57
2022-10-22T02:51:49.445Z,12.58
2022-10-22T02:53:50.907Z,12.56
2022-10-22T02:55:52.485Z,12.52
2022-10-22T02:57:53.990Z,12.49
2022-10-22T02:59:55.486Z,12.50
2022-10-22T03:01:57.002Z,12.53
2022-10-22T03:03:58.470Z,12.46
2022-10-22T03:05:59.997Z,12.56
2022-10-22T03:08:02.949Z,12.61
2022-10-22T03:10:05.430Z,12.62
2022-10-22T03:12:07.084Z,12.66
2022-10-22T03:14:08.571Z,12.63
2022-10-22T03:16:10.056Z,12.60
2022-10-22T03:18:11.586Z,12.65
2022-10-22T03:20:16.099Z,12.66
2022-10-22T03:22:25.843Z,12.65
2022-10-22T03:24:33.976Z,12.71
2022-10-22T03:26:36.574Z,12.72
2022-10-22T03:28:39.913Z,12.71
2022-10-22T03:30:41.376Z,12.73
2022-10-22T03:32:42.871Z,12.66
2022-10-22T03:34:44.442Z,12.65
2022-10-22T03:36:46.644Z,12.63
2022-10-22T03:38:49.518Z,12.67
2022-10-22T03:40:52.907Z,12.69
2022-10-22T03:42:54.434Z,12.68
2022-10-22T03:44:56.023Z,12.71
2022-10-22T03:47:00.212Z,12.77
2022-10-22T03:49:04.095Z,12.72
2022-10-22T03:51:05.834Z,12.73
2022-10-22T03:53:07.334Z,12.71
2022-10-22T03:55:09.852Z,12.75
2022-10-22T03:57:12.828Z,12.74
2022-10-22T03:59:14.387Z,12.76
2022-10-22T04:01:15.899Z,12.71
2022-10-22T04:03:17.489Z,12.71
2022-10-22T04:05:18.985Z,12.69
2022-10-22T04:07:20.538Z,12.67
2022-10-22T04:09:22.047Z,12.64
2022-10-22T04:11:23.508Z,12.65
2022-10-22T04:13:26.470Z,12.66
2022-10-22T04:15:27.989Z,12.67
2022-10-22T04:17:33.697Z,12.66
2022-10-22T04:19:35.245Z,12.70
2022-10-22T04:21:36.829Z,12.67
2022-10-22T04:23:39.232Z,12.65
2022-10-22T04:25:40.766Z,12.61
2022-10-22T04:27:42.600Z,12.62
2022-10-22T04:29:45.634Z,12.56
2022-10-22T04:31:47.159Z,12.52
2022-10-22T04:33:52.597Z,12.52
2022-10-22T04:35:54.076Z,12.52
2022-10-22T04:37:55.640Z,12.52
2022-10-22T04:39:58.235Z,12.46
2022-10-22T04:41:59.925Z,12.47
2022-10-22T04:44:02.359Z,12.31
2022-10-22T04:46:05.996Z,12.34
2022-10-22T04:48:07.464Z,12.44
2022-10-22T04:50:09.412Z,12.44
2022-10-22T04:52:11.109Z,12.47
2022-10-22T04:54:14.312Z,12.49
2022-10-22T04:56:19.262Z,12.47
2022-10-22T04:58:20.873Z,12.55
2022-10-22T05:00:22.356Z,12.49
2022-10-22T05:02:25.316Z,12.48
2022-10-22T05:04:26.877Z,12.47
2022-10-22T05:06:29.936Z,12.45
2022-10-22T05:08:31.529Z,12.43
2022-10-22T05:10:33.088Z,12.45
2022-10-22T05:12:35.322Z,12.46
2022-10-22T05:14:39.291Z,12.46
2022-10-22T05:16:43.373Z,12.47
2022-10-22T05:18:46.289Z,12.48
2022-10-22T05:20:47.786Z,12.51
2022-10-22T05:22:49.306Z,12.44
2022-10-22T05:24:50.840Z,12.41
2022-10-22T05:26:53.482Z,12.34
2022-10-22T05:28:55.204Z,12.38
2022-10-22T05:30:58.177Z,12.34
2022-10-22T05:32:59.655Z,12.32
2022-10-22T05:35:02.562Z,12.34
2022-10-22T05:37:04.251Z,12.30
2022-10-22T05:39:06.074Z,12.33
2022-10-22T05:41:11.933Z,12.34
2022-10-22T05:43:16.823Z,12.34
2022-10-22T05:45:18.327Z,12.33
2022-10-22T05:47:20.016Z,12.27
2022-10-22T05:49:21.516Z,12.30
2022-10-22T05:51:25.745Z,12.25
2022-10-22T05:53:27.249Z,12.30
2022-10-22T05:55:28.748Z,12.26
2022-10-22T05:57:30.342Z,12.18
2022-10-22T05:59:31.941Z,12.21
2022-10-22T06:01:34.537Z,12.27
2022-10-22T06:03:36.030Z,12.24
2022-10-22T06:05:39.996Z,12.23
2022-10-22T06:07:42.986Z,12.25
2022-10-22T06:09:44.636Z,12.25
2022-10-22T06:11:46.570Z,12.19
2022-10-22T06:13:49.266Z,12.25
2022-10-22T06:15:51.086Z,12.23
2022-10-22T06:17:52.763Z,12.27
2022-10-22T06:19:54.269Z,12.18
2022-10-22T06:21:55.785Z,12.20
2022-10-22T06:24:00.148Z,12.17
2022-10-22T06:26:01.936Z,12.14
2022-10-22T06:28:03.674Z,12.10
2022-10-22T06:30:06.245Z,12.04
2022-10-22T06:32:07.702Z,12.06
2022-10-22T06:34:12.507Z,12.11
2022-10-22T06:36:16.397Z,12.06
2022-10-22T06:38:18.400Z,12.13
2022-10-22T06:40:21.449Z,12.18
2022-10-22T06:42:25.654Z,12.26
2022-10-22T06:44:27.314Z,12.22
2022-10-22T06:46:28.845Z,12.26
2022-10-22T06:48:30.655Z,12.25
2022-10-22T06:50:34.174Z,12.25
2022-10-22T06:52:35.637Z,12.25
2022-10-22T06:54:37.236Z,12.31
2022-10-22T06:56:40.312Z,12.29
2022-10-22T06:58:41.857Z,12.33
2022-10-22T07:00:43.372Z,12.32
2022-10-22T07:02:44.879Z,12.38
2022-10-22T07:04:46.358Z,12.43
2022-10-22T07:06:47.919Z,12.50
2022-10-22T07:08:49.922Z,12.50
2022-10-22T07:10:51.444Z,12.60
2022-10-22T07:12:54.307Z,12.65
2022-10-22T07:14:55.768Z,12.64
2022-10-22T07:16:57.264Z,12.63
2022-10-22T07:18:59.022Z,12.63
2022-10-22T07:21:00.917Z,12.79
2022-10-22T07:23:02.404Z,12.85
2022-10-22T07:25:07.270Z,12.87
2022-10-22T07:27:11.813Z,12.97
2022-10-22T07:29:14.852Z,12.90
2022-10-22T07:31:17.916Z,12.90
2022-10-22T07:33:19.384Z,13.01
2022-10-22T07:35:20.854Z,13.11
2022-10-22T07:37:22.453Z,13.22
2022-10-22T07:39:23.934Z,13.32
2022-10-22T07:41:26.787Z,13.38
2022-10-22T07:43:29.217Z,13.32
2022-10-22T07:45:32.085Z,13.26
2022-10-22T07:47:33.952Z,13.17
2022-10-22T07:49:35.687Z,13.16
2022-10-22T07:51:37.198Z,13.14
2022-10-22T07:53:38.930Z,13.13
2022-10-22T07:55:40.397Z,13.10
2022-10-22T07:57:41.862Z,13.19
2022-10-22T07:59:43.393Z,13.20
2022-10-22T08:01:46.367Z,13.20
2022-10-22T08:03:48.252Z,13.24
2022-10-22T08:05:51.170Z,13.22
2022-10-22T08:07:52.766Z,13.18
2022-10-22T08:09:54.360Z,13.10
2022-10-22T08:11:55.923Z,13.14
2022-10-22T08:13:57.436Z,13.16
2022-10-22T08:15:59.821Z,13.16
2022-10-22T08:18:02.740Z,13.19
2022-10-22T08:20:04.801Z,13.18
2022-10-22T08:22:06.358Z,13.24
2022-10-22T08:26:10.243Z,13.26
2022-10-22T08:28:12.031Z,13.21
2022-10-22T08:30:14.229Z,13.25
2022-10-22T08:32:15.941Z,13.25
2022-10-22T08:34:19.421Z,13.30
2022-10-22T08:36:20.947Z,13.36
2022-10-22T08:38:22.430Z,13.34
2022-10-22T08:40:30.180Z,13.28
2022-10-22T08:42:44.596Z,13.28
2022-10-22T08:45:07.700Z,13.38
2022-10-22T08:47:33.629Z,13.45
2022-10-22T08:49:41.363Z,13.55
2022-10-22T08:51:44.104Z,13.70
2022-10-22T08:54:00.720Z,13.73
2022-10-22T08:56:02.228Z,13.77
2022-10-22T08:58:11.784Z,13.81
2022-10-22T09:00:17.784Z,13.92
2022-10-22T09:02:30.705Z,13.89
2022-10-22T09:04:40.137Z,13.99
2022-10-22T09:06:42.107Z,13.92
2022-10-22T09:08:46.304Z,14.03
2022-10-22T09:10:51.148Z,14.08
2022-10-22T09:12:53.142Z,14.13
2022-10-22T09:14:54.906Z,14.32
2022-10-22T09:17:12.398Z,14.42
2022-10-22T09:19:21.476Z,14.55
2022-10-22T09:21:33.829Z,14.61
2022-10-22T09:23:39.874Z,14.73
2022-10-22T09:25:42.747Z,14.74
2022-10-22T09:27:44.635Z,14.75
2022-10-22T09:29:48.172Z,14.81
2022-10-22T09:31:50.763Z,14.81
2022-10-22T09:33:52.272Z,14.89
2022-10-22T09:35:57.066Z,14.96
2022-10-22T09:38:07.260Z,14.89
2022-10-22T09:40:15.187Z,14.89
2022-10-22T09:42:18.994Z,14.87
2022-10-22T09:44:21.161Z,14.89
2022-10-22T09:46:24.549Z,14.92
2022-10-22T09:48:30.025Z,15.04
2022-10-22T09:50:43.012Z,15.10
2022-10-22T09:52:44.810Z,15.13
2022-10-22T09:54:52.699Z,15.20
2022-10-22T09:57:06.545Z,15.27
2022-10-22T09:59:14.252Z,15.36
2022-10-22T10:01:21.065Z,15.45
2022-10-22T10:03:26.146Z,15.51
2022-10-22T10:05:34.919Z,15.52
2022-10-22T10:07:37.223Z,15.49
2022-10-22T10:09:38.766Z,15.56
2022-10-22T10:11:46.335Z,15.52
2022-10-22T10:13:58.480Z,15.50
2022-10-22T10:16:07.756Z,15.52
2022-10-22T10:18:31.625Z,15.44
2022-10-22T10:20:41.816Z,15.51
2022-10-22T10:22:54.306Z,15.43
2022-10-22T10:25:12.094Z,15.32
2022-10-22T10:27:22.788Z,15.46
2022-10-22T10:29:39.230Z,15.46
2022-10-22T10:31:52.415Z,15.45
2022-10-22T10:34:04.614Z,15.49
2022-10-22T10:36:14.698Z,15.47
2022-10-22T10:38:37.572Z,15.43
2022-10-22T10:40:48.179Z,15.43
2022-10-22T10:42:55.714Z,15.50
2022-10-22T10:45:09.223Z,15.49
2022-10-22T10:47:26.307Z,15.59
2022-10-22T10:49:31.566Z,15.55
2022-10-22T10:51:45.145Z,15.60
2022-10-22T10:54:00.596Z,15.65
2022-10-22T10:56:12.973Z,15.63
2022-10-22T10:58:21.560Z,15.79
2022-10-22T11:00:23.999Z,15.94
2022-10-22T11:02:51.941Z,16.12
2022-10-22T11:05:07.469Z,16.36
2022-10-22T11:07:23.446Z,16.60
2022-10-22T11:09:37.468Z,16.89
2022-10-22T11:11:44.157Z,17.01
2022-10-22T11:13:53.226Z,17.23
2022-10-22T11:16:00.878Z,17.44
2022-10-22T11:18:11.945Z,17.38
2022-10-22T11:20:19.782Z,17.45
2022-10-22T11:22:27.472Z,17.25
2022-10-22T11:24:38.870Z,17.39
2022-10-22T11:26:46.931Z,17.35
2022-10-22T11:28:53.283Z,17.35
2022-10-22T11:31:00.034Z,17.39
2022-10-22T11:33:07.163Z,17.37
2022-10-22T11:35:14.548Z,17.40
2022-10-22T11:37:17.131Z,17.51
2022-10-22T11:39:30.507Z,17.39
2022-10-22T11:41:34.200Z,17.39
2022-10-22T11:43:56.690Z,17.41
2022-10-22T11:46:02.260Z,17.40
2022-10-22T11:48:15.547Z,17.46
2022-10-22T11:50:21.957Z,17.56
2022-10-22T11:52:27.156Z,17.66
2022-10-22T11:54:38.980Z,17.71
2022-10-22T11:56:40.923Z,17.78
2022-10-22T11:58:43.718Z,17.72
2022-10-22T12:00:48.495Z,17.68
2022-10-22T12:03:02.687Z,17.61
2022-10-22T12:05:35.345Z,17.57
2022-10-22T12:07:53.928Z,17.70
2022-10-22T12:09:57.480Z,17.69
2022-10-22T12:12:12.517Z,17.75
2022-10-22T12:14:18.855Z,17.87
2022-10-22T12:16:32.437Z,17.87
2022-10-22T12:18:47.024Z,18.03
2022-10-22T12:20:50.736Z,17.99
2022-10-22T12:22:53.178Z,17.93
2022-10-22T12:24:59.388Z,18.07
2022-10-22T12:27:00.945Z,18.12
2022-10-22T12:29:09.464Z,18.11
2022-10-22T12:31:15.912Z,18.09
2022-10-22T12:33:21.971Z,17.96
2022-10-22T12:35:25.842Z,17.92
2022-10-22T12:37:29.481Z,17.96
2022-10-22T12:39:30.965Z,18.03
2022-10-22T12:41:33.992Z,18.03
2022-10-22T12:43:37.453Z,18.02
2022-10-22T12:45:40.129Z,17.98
2022-10-22T12:47:46.128Z,17.85
2022-10-22T12:49:51.942Z,17.89
2022-10-22T12:51:53.505Z,18.01
2022-10-22T12:53:56.806Z,17.88
2022-10-22T12:56:02.292Z,17.86
2022-10-22T12:58:06.164Z,17.86
2022-10-22T13:00:21.006Z,17.91
2022-10-22T13:02:25.143Z,17.91
2022-10-22T13:04:34.513Z,18.06
2022-10-22T13:06:37.482Z,18.11
2022-10-22T13:08:40.059Z,18.03
2022-10-22T13:10:50.284Z,18.07
2022-10-22T13:12:55.997Z,18.22
2022-10-22T13:14:57.533Z,18.24
2022-10-22T13:17:08.227Z,18.22
2022-10-22T13:19:41.504Z,18.22
2022-10-22T13:21:48.862Z,18.10
2022-10-22T13:23:55.235Z,18.08
2022-10-22T13:26:00.325Z,18.14
2022-10-22T13:28:12.729Z,18.08
2022-10-22T13:30:25.750Z,18.01
2022-10-22T13:32:30.134Z,18.13
2022-10-22T13:34:32.065Z,18.02
2022-10-22T13:36:33.594Z,17.99
2022-10-22T13:38:36.444Z,18.04
2022-10-22T13:40:38.634Z,18.02
2022-10-22T13:42:40.544Z,18.02
2022-10-22T13:44:42.369Z,18.02
2022-10-22T13:46:44.636Z,18.02
2022-10-22T13:48:47.719Z,18.12
2022-10-22T13:50:49.941Z,18.05
2022-10-22T13:52:53.809Z,18.05
2022-10-22T13:54:56.691Z,18.01
2022-10-22T13:56:58.153Z,17.98
2022-10-22T13:58:59.778Z,17.95
2022-10-22T14:01:03.146Z,17.92
2022-10-22T14:03:05.490Z,18.02
2022-10-22T14:05:07.784Z,18.02
2022-10-22T14:07:13.695Z,17.87
2022-10-22T14:09:16.107Z,17.94
2022-10-22T14:11:19.247Z,17.91
2022-10-22T14:13:21.368Z,17.88
2022-10-22T14:15:27.650Z,17.82
2022-10-22T14:17:34.751Z,17.80
2022-10-22T14:19:40.045Z,17.81
2022-10-22T14:21:41.538Z,17.80
2022-10-22T14:23:44.955Z,17.78
2022-10-22T14:25:46.546Z,17.78
2022-10-22T14:27:49.578Z,17.70
2022-10-22T14:29:51.996Z,17.63
2022-10-22T14:31:54.770Z,17.65
2022-10-22T14:33:56.353Z,17.62
2022-10-22T14:36:00.370Z,17.63
2022-10-22T14:38:01.863Z,17.57
2022-10-22T14:40:04.101Z,17.50
2022-10-22T14:42:05.710Z,17.42
2022-10-22T14:44:11.436Z,17.43
2022-10-22T14:46:15.340Z,17.36
2022-10-22T14:48:17.223Z,17.32
2022-10-22T14:50:19.262Z,17.32
2022-10-22T14:52:20.931Z,17.31
2022-10-22T14:54:22.478Z,17.22
2022-10-22T14:56:23.980Z,17.19
2022-10-22T14:58:25.692Z,17.20
2022-10-22T15:00:28.731Z,17.22
2022-10-22T15:02:30.302Z,17.16
2022-10-22T15:04:34.728Z,17.22
2022-10-22T15:06:36.344Z,17.08
2022-10-22T15:08:38.076Z,17.18
2022-10-22T15:10:39.872Z,17.22
2022-10-22T15:12:41.445Z,17.24
2022-10-22T15:14:42.916Z,17.10
2022-10-22T15:16:47.097Z,17.06
2022-10-22T15:18:48.732Z,17.01
2022-10-22T15:20:58.034Z,17.01
2022-10-22T15:22:59.540Z,16.94
2022-10-22T15:25:01.155Z,16.85
2022-10-22T15:27:02.722Z,16.73
2022-10-22T15:29:05.041Z,16.70
2022-10-22T15:31:07.756Z,16.67
2022-10-22T15:33:10.744Z,16.60
2022-10-22T15:35:12.502Z,16.50
2022-10-22T15:37:14.043Z,16.48
2022-10-22T15:39:15.909Z,16.36
2022-10-22T15:41:17.402Z,16.27
2022-10-22T15:43:18.991Z,16.18
2022-10-22T15:45:20.621Z,16.10
2022-10-22T15:47:25.765Z,16.04
2022-10-22T15:49:28.729Z,15.94
2022-10-22T15:51:30.391Z,15.86
2022-10-22T15:53:31.906Z,15.84
2022-10-22T15:55:36.317Z,15.80
2022-10-22T15:57:38.253Z,15.74
2022-10-22T15:59:39.869Z,15.66
2022-10-22T16:01:45.553Z,15.58
2022-10-22T16:03:47.109Z,15.50
2022-10-22T16:05:51.978Z,15.46
2022-10-22T16:07:54.733Z,15.41
2022-10-22T16:09:57.480Z,15.30
2022-10-22T16:11:59.028Z,15.26
2022-10-22T16:14:01.522Z,15.18
2022-10-22T16:16:05.542Z,15.13
2022-10-22T16:18:07.559Z,15.09
2022-10-22T16:20:10.365Z,15.06
2022-10-22T16:22:13.355Z,15.09
2022-10-22T16:24:14.883Z,14.98
2022-10-22T16:26:17.418Z,14.87
2022-10-22T16:28:18.950Z,14.77
2022-10-22T16:30:20.481Z,14.70
2022-10-22T16:32:22.229Z,14.67
2022-10-22T16:34:26.358Z,14.63
2022-10-22T16:36:27.909Z,14.57
2022-10-22T16:38:30.829Z,14.53
2022-10-22T16:40:32.415Z,14.55
2022-10-22T16:42:33.930Z,14.53
2022-10-22T16:44:39.725Z,14.47
2022-10-22T16:46:47.664Z,14.44
2022-10-22T16:48:51.613Z,14.51
2022-10-22T16:50:53.273Z,14.51
2022-10-22T16:52:54.802Z,14.50
2022-10-22T16:54:57.861Z,14.45
2022-10-22T16:56:59.371Z,14.39
2022-10-22T16:59:01.042Z,14.33
2022-10-22T17:01:06.327Z,14.32
2022-10-22T17:03:10.801Z,14.31
2022-10-22T17:05:12.285Z,14.27
2022-10-22T17:07:13.860Z,14.26
2022-10-22T17:09:15.404Z,14.29
2022-10-22T17:11:20.686Z,14.24
2022-10-22T17:13:22.286Z,14.21
2022-10-22T17:15:24.022Z,14.27
2022-10-22T17:17:25.604Z,14.27
2022-10-22T17:19:27.400Z,14.24
2022-10-22T17:21:29.180Z,14.21
2022-10-22T17:23:30.735Z,14.19
2022-10-22T17:25:36.565Z,14.17
2022-10-22T17:27:39.884Z,14.09
2022-10-22T17:29:41.636Z,14.05
2022-10-22T17:31:43.194Z,14.01
2022-10-22T17:33:45.951Z,14.04
2022-10-22T17:35:47.447Z,13.99
2022-10-22T17:37:49.109Z,13.95
2022-10-22T17:39:50.700Z,13.97
2022-10-22T17:41:52.506Z,13.96
2022-10-22T17:43:56.560Z,13.91
2022-10-22T17:46:03.907Z,13.97
2022-10-22T17:48:05.808Z,13.90
2022-10-22T17:50:08.561Z,13.86
2022-10-22T17:52:10.312Z,13.85
2022-10-22T17:54:13.157Z,13.85
2022-10-22T17:56:17.896Z,13.83
2022-10-22T17:58:19.509Z,13.86
2022-10-22T18:00:22.437Z,13.85
2022-10-22T18:02:24.039Z,13.91
2022-10-22T18:04:25.596Z,14.04
2022-10-22T18:06:27.823Z,14.04
2022-10-22T18:08:29.355Z,14.01
2022-10-22T18:10:30.884Z,14.06
2022-10-22T18:12:32.422Z,14.06
2022-10-22T18:14:33.981Z,14.10
2022-10-22T18:16:37.006Z,14.19
2022-10-22T18:18:38.495Z,14.24
2022-10-22T18:20:39.970Z,14.27
2022-10-22T18:22:41.881Z,14.28
2022-10-22T18:24:43.364Z,14.25
2022-10-22T18:26:44.970Z,14.36
2022-10-22T18:28:47.003Z,14.36
2022-10-22T18:30:48.813Z,14.37
2022-10-22T18:32:51.671Z,14.31
2022-10-22T18:34:53.171Z,14.37
2022-10-22T18:36:54.688Z,14.41
2022-10-22T18:39:01.059Z,14.43
2022-10-22T18:41:02.625Z,14.40
2022-10-22T18:43:04.153Z,14.43
2022-10-22T18:45:07.049Z,14.43
2022-10-22T18:47:08.583Z,14.39
2022-10-22T18:49:15.815Z,14.33
2022-10-22T18:51:17.406Z,14.30
2022-10-22T18:53:18.912Z,14.24
2022-10-22T18:55:20.463Z,14.12
2022-10-22T18:57:22.007Z,14.14
2022-10-22T18:59:26.011Z,14.12
2022-10-22T19:01:27.611Z,14.07
2022-10-22T19:03:29.135Z,14.04
2022-10-22T19:05:32.169Z,13.98
2022-10-22T19:07:34.336Z,13.98
2022-10-22T19:09:36.098Z,13.96
2022-10-22T19:11:37.755Z,13.90
2022-10-22T19:13:39.415Z,13.91
2022-10-22T19:15:41.093Z,13.82
2022-10-22T19:17:42.892Z,13.78
2022-10-22T19:19:44.942Z,13.73
2022-10-22T19:21:48.780Z,13.71
2022-10-22T19:23:50.341Z,13.68
2022-10-22T19:26:00.400Z,13.67
2022-10-22T19:28:01.919Z,13.59
2022-10-22T19:30:04.177Z,13.55
2022-10-22T19:32:05.880Z,13.48
2022-10-22T19:34:07.367Z,13.43
2022-10-22T19:36:11.855Z,13.40
2022-10-22T19:38:14.750Z,13.37
2022-10-22T19:40:16.305Z,13.35
2022-10-22T19:42:17.929Z,13.31
2022-10-22T19:44:19.460Z,13.28
2022-10-22T19:46:22.511Z,13.28
2022-10-22T19:48:24.139Z,13.30
2022-10-22T19:50:25.652Z,13.35
2022-10-22T19:52:27.128Z,13.37
2022-10-22T19:54:30.148Z,13.41
2022-10-22T19:56:33.116Z,13.43
2022-10-22T19:58:36.411Z,13.49
2022-10-22T20:00:38.238Z,13.43
2022-10-22T20:02:39.766Z,13.49
2022-10-22T20:04:41.321Z,13.47
2022-10-22T20:06:42.961Z,13.55
2022-10-22T20:08:46.631Z,13.35
2022-10-22T20:10:49.777Z,13.26
2022-10-22T20:12:51.263Z,13.25
2022-10-22T20:14:55.560Z,13.25
2022-10-22T20:16:57.043Z,13.34
2022-10-22T20:19:04.282Z,13.36
2022-10-22T20:21:06.666Z,13.35
2022-10-22T20:23:08.142Z,13.35
2022-10-22T20:25:09.730Z,13.31
2022-10-22T20:27:13.318Z,13.43
2022-10-22T20:29:15.687Z,13.40
2022-10-22T20:31:20.047Z,13.44
2022-10-22T20:33:21.650Z,13.39
2022-10-22T20:35:23.260Z,13.41
2022-10-22T20:37:25.056Z,13.44
2022-10-22T20:39:26.716Z,13.50
2022-10-22T20:41:28.808Z,13.50
2022-10-22T20:43:32.494Z,13.55
2022-10-22T20:45:35.185Z,13.58
2022-10-22T20:47:50.810Z,13.61
2022-10-22T20:49:58.985Z,13.60
2022-10-22T20:52:00.467Z,13.65
2022-10-22T20:54:02.087Z,13.74
2022-10-22T20:56:04.176Z,13.73
2022-10-22T20:58:05.677Z,13.72
2022-10-22T21:00:10.065Z,13.72
2022-10-22T21:02:12.441Z,13.76
2022-10-22T21:04:14.549Z,13.79
2022-10-22T21:06:16.238Z,13.79
2022-10-22T21:08:17.947Z,13.76
2022-10-22T21:10:19.466Z,13.81
2022-10-22T21:12:20.984Z,13.78
2022-10-22T21:14:22.506Z,13.76
2022-10-22T21:16:25.495Z,13.83
2022-10-22T21:18:27.003Z,13.81
2022-10-22T21:20:28.891Z,13.82
2022-10-22T21:22:31.109Z,13.80
2022-10-22T21:24:34.933Z,13.81
2022-10-22T21:26:37.011Z,13.79
2022-10-22T21:28:39.074Z,13.79
2022-10-22T21:30:44.674Z,13.79
2022-10-22T21:32:47.620Z,13.78
2022-10-22T21:34:49.168Z,13.88
2022-10-22T21:36:50.747Z,13.86
2022-10-22T21:38:53.182Z,13.89
2022-10-22T21:40:54.653Z,13.89
2022-10-22T21:42:56.186Z,13.87
2022-10-22T21:44:57.747Z,13.91
2022-10-22T21:46:59.294Z,13.93
2022-10-22T21:49:05.110Z,13.90
2022-10-22T21:51:08.251Z,13.78
2022-10-22T21:53:11.216Z,13.82
2022-10-22T21:55:12.733Z,13.91
2022-10-22T21:57:14.291Z,13.93
2022-10-22T21:59:15.782Z,13.88
2022-10-22T22:01:17.792Z,13.85
2022-10-22T22:03:19.422Z,13.91
2022-10-22T22:05:22.409Z,13.85
2022-10-22T22:07:23.911Z,13.77
2022-10-22T22:09:25.460Z,13.77
2022-10-22T22:11:28.621Z,13.73
2022-10-22T22:13:30.832Z,13.70
2022-10-22T22:15:32.489Z,13.69
2022-10-22T22:17:34.125Z,13.56
2022-10-22T22:19:35.651Z,13.59
2022-10-22T22:21:39.807Z,13.58
2022-10-22T22:23:43.356Z,13.59
2022-10-22T22:25:44.873Z,13.49
2022-10-22T22:27:46.435Z,13.46
2022-10-22T22:29:47.980Z,13.41
2022-10-22T22:31:50.009Z,13.43
2022-10-22T22:33:52.111Z,13.39
2022-10-22T22:35:57.985Z,13.34
2022-10-22T22:38:00.861Z,13.32
2022-10-22T22:40:02.401Z,13.25
2022-10-22T22:42:04.143Z,13.22
2022-10-22T22:44:05.864Z,13.14
2022-10-22T22:46:11.545Z,13.17
2022-10-22T22:48:13.161Z,13.14
2022-10-22T22:50:14.756Z,13.13
2022-10-22T22:52:16.360Z,13.05
2022-10-22T22:54:19.251Z,13.03
2022-10-22T22:56:22.575Z,12.98
2022-10-22T22:58:24.142Z,12.91
2022-10-22T23:00:25.818Z,12.91
2022-10-22T23:02:27.444Z,12.85
2022-10-22T23:04:31.039Z,12.82
2022-10-22T23:06:35.187Z,12.79
2022-10-22T23:08:37.033Z,12.64
2022-10-22T23:10:40.201Z,12.65
2022-10-22T23:12:42.059Z,12.71
2022-10-22T23:14:43.771Z,12.66
2022-10-22T23:16:47.540Z,12.69
2022-10-22T23:18:49.909Z,12.71
2022-10-22T23:20:52.124Z,12.69
2022-10-22T23:22:54.101Z,12.64
2022-10-22T23:24:55.667Z,12.57
2022-10-22T23:27:00.935Z,12.56
2022-10-22T23:29:03.756Z,12.54
2022-10-22T23:31:05.578Z,12.46
2022-10-22T23:33:08.150Z,12.36
2022-10-22T23:35:09.759Z,12.35
2022-10-22T23:37:12.026Z,12.34
2022-10-22T23:39:16.014Z,12.39
2022-10-22T23:41:17.644Z,12.38
2022-10-22T23:43:20.854Z,12.35
2022-10-22T23:45:22.402Z,12.36
2022-10-22T23:47:23.953Z,12.31
2022-10-22T23:49:25.542Z,12.27
2022-10-22T23:51:27.386Z,12.22
2022-10-22T23:53:28.940Z,12.22
2022-10-22T23:55:30.630Z,12.17
2022-10-22T23:57:32.125Z,12.15
2022-10-22T23:59:35.013Z,12.18
